»·PEaware :: N334CS KGTF-KIDA

N334CS :: KGTF-KIDA

FLIGHT INFORMATION

Flight Status: Arrived
Operator: Privately registered:
United States
More flights under this callsign
Pilot: Anonymous 18083 (18083)
Aircraft: Unknown
(SF50)
More flights by this aircraft type
Origin: KGTF Great Falls Intl
United States
Destination: KIDA Idaho Falls Regl
United States
More flights between these airports :: More routes between these airports
Route: HLN V21
File this flight plan on PilotEdge
Remarks: Sample flight plan
Altitude:
(Current/Filed)
24,000ft
Speed:
(Current/Filed)
150kts
Departed: 12-Jan-19 04:19 PM
Arrived: 12-Jan-19 05:15 PM
Distance/Time
Traveled:
240nm/0:56
Distance/Time
To Go:
Arrived

Flight Plot

Page will automatically refresh every two minutes.

Flight plan parsing failed; only flown route is shown


Map Options




Map Legend


Flown Route
Filed Route
Departure Airport
Arrival Airport
Navaid (VOR, NDB)
Fix

Horizontal Profiles

Position Reports

Time Latitude Longitude Heading Altitude Ground
Speed
12-Jan-19 16:00 47.486877 -111.354195 314 3656ft 0kts
12-Jan-19 16:01 47.486877 -111.354195 314 3656ft 0kts
12-Jan-19 16:02 47.486877 -111.354195 314 3656ft 0kts
12-Jan-19 16:03 47.486877 -111.354195 314 3656ft 0kts
12-Jan-19 16:04 47.486877 -111.354195 314 3656ft 0kts
12-Jan-19 16:05 47.486877 -111.354195 314 3656ft 0kts
12-Jan-19 16:06 47.486877 -111.354195 314 3656ft 0kts
12-Jan-19 16:07 47.486877 -111.354195 314 3656ft 0kts
12-Jan-19 16:08 47.486877 -111.354195 314 3656ft 0kts
12-Jan-19 16:09 47.486877 -111.354195 314 3656ft 0kts
12-Jan-19 16:10 47.486877 -111.354195 314 3656ft 0kts
12-Jan-19 16:11 47.486877 -111.354195 314 3656ft 0kts
12-Jan-19 16:12 47.486877 -111.354195 314 3656ft 0kts
12-Jan-19 16:13 47.486877 -111.354195 314 3656ft 0kts
12-Jan-19 16:14 47.487048 -111.354046 37 3655ft 5kts
12-Jan-19 16:15 47.488444 -111.352802 46 3645ft 12kts
12-Jan-19 16:16 47.488931 -111.352924 319 3645ft 0kts
12-Jan-19 16:17 47.489319 -111.353506 310 3648ft 7kts
12-Jan-19 16:18 47.485649 -111.359784 226 3668ft 82kts
12-Jan-19 16:19 47.462056 -111.381595 197 4609ft 138kts
12-Jan-19 16:20 47.420303 -111.402372 206 6162ft 182kts
12-Jan-19 16:21 47.369086 -111.435974 207 7693ft 219kts
12-Jan-19 16:22 47.310616 -111.476008 207 9211ft 242kts
12-Jan-19 16:23 47.248359 -111.518792 207 10714ft 253kts
12-Jan-19 16:24 47.184209 -111.562776 206 12214ft 257kts
12-Jan-19 16:25 47.118728 -111.607557 206 13461ft 267kts
12-Jan-19 16:26 47.049639 -111.654669 206 14479ft 277kts
12-Jan-19 16:27 46.979233 -111.702541 205 15489ft 282kts
12-Jan-19 16:28 46.907820 -111.750958 205 16499ft 284kts
12-Jan-19 16:29 46.835925 -111.799554 205 17496ft 284kts
12-Jan-19 16:30 46.764451 -111.847726 205 18488ft 283kts
12-Jan-19 16:31 46.693320 -111.895527 204 19480ft 281kts
12-Jan-19 16:32 46.622660 -111.942873 204 20408ft 280kts
12-Jan-19 16:33 46.547376 -111.970828 191 21308ft 280kts
12-Jan-19 16:34 46.471297 -111.993191 190 22139ft 280kts
12-Jan-19 16:35 46.394982 -112.015496 190 22938ft 280kts
12-Jan-19 16:36 46.318821 -112.037694 190 23738ft 279kts
12-Jan-19 16:37 46.242341 -112.059924 190 24258ft 288kts
12-Jan-19 16:38 46.160842 -112.083566 190 24247ft 309kts
12-Jan-19 16:39 46.074944 -112.108265 190 24231ft 320kts
12-Jan-19 16:40 45.986886 -112.133613 190 24230ft 326kts
12-Jan-19 16:41 45.897786 -112.159287 190 24230ft 329kts
12-Jan-19 16:42 45.811220 -112.201135 203 24228ft 330kts
12-Jan-19 16:43 45.726666 -112.253565 203 24229ft 331kts
12-Jan-19 16:44 45.642229 -112.305809 203 24230ft 331kts
12-Jan-19 16:45 45.557874 -112.357831 203 24228ft 332kts
12-Jan-19 16:46 45.473172 -112.409894 203 24229ft 332kts
12-Jan-19 16:47 45.388483 -112.461779 203 24229ft 332kts
12-Jan-19 16:48 45.303672 -112.513559 203 24229ft 331kts
12-Jan-19 16:49 45.215534 -112.536034 170 24231ft 329kts
12-Jan-19 16:50 45.124336 -112.510243 167 23502ft 347kts
12-Jan-19 16:51 45.032790 -112.483225 166 23231ft 334kts
12-Jan-19 16:53 44.941743 -112.456405 165 23232ft 335kts
12-Jan-19 16:54 44.850512 -112.429604 165 23228ft 335kts
12-Jan-19 16:55 44.759389 -112.402942 165 23228ft 335kts
12-Jan-19 16:56 44.666976 -112.375983 165 21888ft 340kts
12-Jan-19 16:57 44.575786 -112.349471 165 20392ft 333kts
12-Jan-19 16:58 44.486671 -112.323646 166 18896ft 322kts
12-Jan-19 16:59 44.400284 -112.298684 166 17399ft 314kts
12-Jan-19 17:00 44.315949 -112.274389 166 15906ft 307kts
12-Jan-19 17:01 44.233514 -112.250710 167 14407ft 299kts
12-Jan-19 17:02 44.155191 -112.228257 166 13990ft 282kts
12-Jan-19 17:03 44.078076 -112.202296 156 13993ft 287kts
12-Jan-19 17:04 44.003598 -112.159116 155 12974ft 290kts
12-Jan-19 17:05 43.930244 -112.116161 155 11480ft 284kts
12-Jan-19 17:06 43.858596 -112.074262 156 10039ft 275kts
12-Jan-19 17:07 43.792691 -112.039523 168 9755ft 246kts
12-Jan-19 17:08 43.724914 -112.033697 184 9095ft 244kts
12-Jan-19 17:09 43.658089 -112.036048 177 8506ft 232kts
12-Jan-19 17:10 43.595393 -112.034928 182 7294ft 223kts
12-Jan-19 17:11 43.539487 -112.064243 221 5973ft 210kts
12-Jan-19 17:12 43.508306 -112.107883 230 5900ft 127kts
12-Jan-19 17:13 43.484361 -112.107415 83 5299ft 117kts
12-Jan-19 17:13 43.501020 -112.086857 36 4837ft 81kts
12-Jan-19 17:14 43.509434 -112.076630 124 4742ft 9kts
12-Jan-19 17:15 43.509870 -112.075397 38 4742ft 6kts
12-Jan-19 17:17 43.510617 -112.072671 128 4739ft 0kts
12-Jan-19 17:18 43.510617 -112.072671 128 4739ft 0kts
12-Jan-19 17:18 43.510617 -112.072671 128 4739ft 0kts

Navigation Log

Ident Type
Flight plan parsing failed, navigation log unavailable